Time;durP1;ratioP1;P1;durP2;ratioP2;P2;SDS_P1;SDS_P2;PMS_P1;PMS_P2;Temp;Humidity;BMP_temperature;BMP_pressure;BME280_temperature;BME280_humidity;BME280_pressure;Samples;Min_cycle;Max_cycle;Signal;HPM_P1;HPM_P2
2022/12/02 00:01:19;;;;;;;57.22;35.22;;;9.00;99.90;;;9.10;78.29;102545.78;5116995;28;20040;-69
2022/12/02 00:03:48;;;;;;;59.70;36.60;;;8.90;99.90;;;9.07;78.80;102544.00;5117501;28;20401;-68
2022/12/02 00:06:26;;;;;;;59.42;35.85;;;8.90;99.90;;;9.11;78.57;102550.25;5117333;28;20050;-69
2022/12/02 00:09:03;;;;;;;61.80;37.10;;;9.00;99.90;;;9.14;79.01;102544.16;5117502;28;20401;-68
2022/12/02 00:11:32;;;;;;;59.25;36.40;;;9.00;99.90;;;9.08;79.23;102536.94;5116858;28;20102;-67
2022/12/02 00:14:09;;;;;;;67.40;37.53;;;8.90;99.90;;;9.06;79.11;102549.19;5116872;28;20046;-67
2022/12/02 00:16:38;;;;;;;64.50;39.08;;;9.00;99.90;;;9.06;79.06;102539.53;5116815;28;20404;-67
2022/12/02 00:19:07;;;;;;;64.80;37.33;;;8.90;99.90;;;9.07;79.29;102536.06;5116935;28;20050;-73
2022/12/02 00:21:35;;;;;;;61.63;37.30;;;8.90;99.90;;;9.09;79.35;102533.47;5116562;28;20052;-70
2022/12/02 00:24:03;;;;;;;62.95;37.50;;;8.90;99.90;;;9.02;79.98;102529.75;5116840;28;20049;-70
2022/12/02 00:26:32;;;;;;;66.15;38.53;;;8.90;99.90;;;9.09;79.83;102522.91;5116503;28;20040;-71
2022/12/02 00:29:01;;;;;;;61.95;37.83;;;8.90;99.90;;;9.10;79.73;102529.97;5098398;28;20048;-71
2022/12/02 00:31:29;;;;;;;71.10;40.28;;;8.90;99.90;;;9.09;79.62;102523.81;5116420;28;20423;-70
2022/12/02 00:34:00;;;;;;;67.22;39.88;;;9.00;99.90;;;9.13;79.84;102532.69;5098394;28;20495;-72
2022/12/02 00:36:29;;;;;;;71.20;39.22;;;9.00;99.90;;;9.05;79.64;102519.28;5116977;28;20047;-70
2022/12/02 00:38:58;;;;;;;69.45;41.25;;;8.90;99.90;;;9.07;79.80;102524.59;5116578;28;20046;-70
2022/12/02 00:41:26;;;;;;;67.47;40.35;;;8.90;99.90;;;9.02;79.99;102506.00;5098189;28;20400;-70
2022/12/02 00:46:40;;;;;;;71.15;42.10;;;8.90;99.90;;;9.13;80.30;102522.13;5116197;28;20054;-69
2022/12/02 00:49:13;;;;;;;71.50;40.70;;;9.00;99.90;;;9.15;80.27;102522.19;5116103;28;20122;-69
2022/12/02 00:51:42;;;;;;;69.72;40.65;;;9.00;99.90;;;9.14;80.11;102523.03;5116317;28;20054;-67
2022/12/02 00:54:12;;;;;;;73.53;41.83;;;9.00;99.90;;;9.17;80.24;102516.09;5097888;28;20138;-70
2022/12/02 00:56:41;;;;;;;73.72;43.38;;;9.00;99.90;;;9.19;80.07;102527.59;5116224;28;20044;-69
2022/12/02 00:59:09;;;;;;;74.00;42.17;;;9.00;99.90;;;9.19;80.32;102517.03;5097482;28;20428;-67
2022/12/02 01:01:39;;;;;;;77.72;43.65;;;9.00;99.90;;;9.16;79.91;102511.66;5097787;28;20485;-67
2022/12/02 01:04:10;;;;;;;72.55;41.35;;;9.00;99.90;;;9.19;80.03;102509.13;5116139;28;20370;-66
2022/12/02 01:06:39;;;;;;;76.75;43.72;;;9.00;99.90;;;9.15;79.86;102501.06;5116097;28;20046;-66
2022/12/02 01:09:09;;;;;;;78.25;44.28;;;9.00;99.90;;;9.16;80.14;102502.84;5097746;28;20135;-66
2022/12/02 01:11:37;;;;;;;73.15;43.80;;;9.00;99.90;;;9.05;80.52;102500.81;5115846;28;20055;-66
2022/12/02 01:14:05;;;;;;;75.05;43.00;;;8.90;99.90;;;9.08;80.71;102494.69;5097556;28;20040;-66
2022/12/02 01:16:34;;;;;;;75.85;43.65;;;8.90;99.90;;;9.09;80.56;102502.69;5115421;28;20126;-66
2022/12/02 01:19:02;;;;;;;85.70;45.47;;;8.90;99.90;;;8.96;80.64;102500.53;5115799;28;20039;-66
2022/12/02 01:21:32;;;;;;;77.07;43.47;;;8.90;99.90;;;9.00;80.64;102505.06;5097239;28;20052;-66
2022/12/02 01:24:00;;;;;;;80.10;45.13;;;8.90;99.90;;;9.05;80.73;102507.84;5116265;28;20054;-67
2022/12/02 01:26:29;;;;;;;78.35;44.50;;;8.90;99.90;;;9.07;80.79;102503.50;5115668;28;20036;-66
2022/12/02 01:28:57;;;;;;;83.38;45.03;;;8.90;99.90;;;9.09;80.56;102493.88;5115598;28;20508;-66
2022/12/02 01:31:26;;;;;;;84.55;45.45;;;8.90;99.90;;;9.12;81.08;102512.41;5097252;28;20032;-66
2022/12/02 01:33:55;;;;;;;87.50;45.05;;;8.90;99.90;;;9.10;80.49;102503.56;5115532;28;20048;-66
2022/12/02 01:36:23;;;;;;;82.85;46.78;;;9.00;99.90;;;9.06;80.44;102507.88;5114957;28;20039;-66
2022/12/02 01:38:52;;;;;;;83.28;46.20;;;9.00;99.90;;;9.05;80.76;102513.13;5097067;28;20054;-66
2022/12/02 01:41:21;;;;;;;86.55;49.17;;;8.90;99.90;;;9.05;80.85;102511.38;5115397;28;20050;-66
2022/12/02 01:43:50;;;;;;;91.75;49.53;;;8.90;99.90;;;8.99;80.80;102516.47;5115594;28;20046;-66
2022/12/02 01:46:18;;;;;;;88.85;49.97;;;8.80;99.90;;;9.01;80.76;102514.78;5096928;28;20520;-66
2022/12/02 01:48:47;;;;;;;92.85;49.97;;;8.80;99.90;;;9.00;81.11;102518.25;5096883;28;20057;-66
2022/12/02 01:51:15;;;;;;;94.07;50.72;;;8.80;99.90;;;9.01;80.64;102519.16;5115142;28;20036;-66
2022/12/02 01:53:46;;;;;;;92.75;50.95;;;8.90;99.90;;;9.04;80.35;102516.59;5115316;28;20046;-66
2022/12/02 01:56:16;;;;;;;86.60;49.58;;;8.90;99.90;;;9.02;80.57;102515.66;5096463;28;20548;-66
2022/12/02 01:58:44;;;;;;;95.28;52.08;;;8.90;99.90;;;9.04;80.59;102508.66;5096731;28;20037;-66
2022/12/02 02:01:25;;;;;;;90.95;50.20;;;8.90;99.90;;;8.97;80.84;102514.63;5114976;28;20040;-66
2022/12/02 02:03:53;;;;;;;93.60;51.78;;;8.80;99.90;;;9.01;80.73;102512.13;5114991;28;20054;-66
2022/12/02 02:06:22;;;;;;;102.00;54.53;;;8.90;99.90;;;8.84;81.06;102509.88;5114860;28;20094;-66
2022/12/02 02:08:51;;;;;;;104.15;55.53;;;8.70;99.90;;;8.97;80.83;102506.72;5096474;28;20047;-66
2022/12/02 02:11:21;;;;;;;100.35;54.28;;;8.80;99.90;;;8.99;80.53;102507.66;5096742;28;20051;-66
2022/12/02 02:13:49;;;;;;;107.20;56.08;;;8.80;99.90;;;8.92;80.68;102510.97;5096490;28;20047;-66
2022/12/02 02:16:18;;;;;;;104.07;55.90;;;8.80;99.90;;;8.95;80.73;102508.41;5096325;28;20036;-66
2022/12/02 02:18:46;;;;;;;112.05;58.80;;;8.80;99.90;;;8.88;80.98;102507.34;5096326;28;20047;-66
2022/12/02 02:21:21;;;;;;;108.70;59.38;;;8.80;99.90;;;8.77;81.20;102498.22;5114544;28;20489;-66
2022/12/02 02:23:51;;;;;;;113.72;58.53;;;8.60;99.90;;;8.70;81.21;102498.91;5096352;28;20134;-66
2022/12/02 02:26:20;;;;;;;121.53;61.30;;;8.60;99.90;;;8.68;81.29;102494.44;5114525;28;20071;-66
2022/12/02 02:28:49;;;;;;;109.53;59.22;;;8.50;99.90;;;8.70;81.18;102485.72;5114408;28;20295;-66
2022/12/02 02:31:18;;;;;;;113.35;60.35;;;8.60;99.90;;;8.74;81.39;102484.97;5096121;28;20043;-66
2022/12/02 02:33:48;;;;;;;116.00;61.92;;;8.60;99.90;;;8.66;81.00;102485.56;5114312;28;20050;-66
2022/12/02 02:36:17;;;;;;;113.97;59.03;;;8.60;99.90;;;8.72;81.04;102476.09;5096048;28;20071;-66
2022/12/02 02:38:45;;;;;;;109.43;59.00;;;8.60;99.90;;;8.77;81.11;102465.66;5113154;28;20504;-66
2022/12/02 02:41:15;;;;;;;115.70;60.40;;;8.70;99.90;;;8.78;80.83;102471.00;5114216;28;20092;-66
2022/12/02 02:43:43;;;;;;;109.97;60.85;;;8.70;99.90;;;8.79;80.96;102466.59;5114192;28;20082;-66
2022/12/02 02:46:12;;;;;;;115.20;61.20;;;8.70;99.90;;;8.83;81.03;102455.28;5114090;28;20053;-66
2022/12/02 02:48:42;;;;;;;114.40;60.83;;;8.70;99.90;;;8.90;80.09;102457.28;5095917;28;20405;-66
2022/12/02 02:51:11;;;;;;;121.22;62.65;;;8.70;99.90;;;8.87;80.02;102460.72;5095760;28;20319;-66
2022/12/02 02:53:40;;;;;;;109.93;60.17;;;8.70;99.90;;;8.86;79.92;102461.56;5095778;28;20401;-66
2022/12/02 02:56:10;;;;;;;114.75;60.78;;;8.80;99.90;;;8.88;80.05;102461.59;5095761;28;20453;-66
2022/12/02 02:58:41;;;;;;;113.18;59.85;;;8.70;99.90;;;8.74;79.63;102455.94;5095821;28;20047;-66
2022/12/02 03:01:15;;;;;;;114.17;59.80;;;8.60;99.90;;;8.69;79.67;102460.19;5095575;28;20524;-66
2022/12/02 03:03:49;;;;;;;116.63;61.70;;;8.60;99.90;;;8.55;79.25;102431.63;5095690;28;20049;-66
2022/12/02 03:06:20;;;;;;;114.75;60.67;;;8.60;99.90;;;8.67;79.25;102451.31;5094777;28;20046;-66
2022/12/02 03:08:49;;;;;;;112.45;60.00;;;8.60;99.90;;;8.68;78.90;102450.50;5095575;28;20104;-66
2022/12/02 03:11:18;;;;;;;112.93;59.92;;;8.50;99.90;;;8.60;78.72;102457.28;5113583;28;20561;-66
2022/12/02 03:13:50;;;;;;;108.00;57.50;;;8.50;99.90;;;8.57;78.61;102448.41;5113759;28;20042;-66
2022/12/02 03:16:22;;;;;;;111.65;59.10;;;8.40;99.90;;;8.45;78.49;102427.84;5113748;28;20044;-66
2022/12/02 03:18:52;;;;;;;109.80;58.28;;;8.40;99.90;;;8.49;79.02;102453.44;5113541;28;20039;-66
2022/12/02 03:21:22;;;;;;;114.60;59.10;;;8.40;99.90;;;8.57;79.28;102445.75;5113291;28;20058;-66
2022/12/02 03:23:52;;;;;;;111.70;58.88;;;8.40;99.90;;;8.53;78.96;102443.88;5113993;28;20048;-66
2022/12/02 03:26:21;;;;;;;114.15;61.08;;;8.40;99.90;;;8.51;78.84;102445.56;5113709;28;20386;-66
2022/12/02 03:28:51;;;;;;;112.07;59.15;;;8.40;99.90;;;8.49;78.79;102442.91;5113419;28;20043;-66
2022/12/02 03:31:19;;;;;;;116.05;60.45;;;8.40;99.90;;;8.50;78.67;102446.41;5113947;28;20430;-66
2022/12/02 03:33:49;;;;;;;111.00;58.80;;;8.40;99.90;;;8.54;79.22;102448.28;5113431;28;20393;-66
2022/12/02 03:36:18;;;;;;;114.72;60.83;;;8.40;99.90;;;8.51;78.89;102450.84;5113584;28;20491;-66
2022/12/02 03:38:46;;;;;;;114.40;59.67;;;8.40;99.90;;;8.52;78.97;102447.34;5113540;28;20036;-66
2022/12/02 03:41:15;;;;;;;115.43;59.35;;;8.40;99.90;;;8.59;78.56;102458.16;5113819;28;20058;-66
2022/12/02 03:43:43;;;;;;;116.93;60.35;;;8.40;99.90;;;8.50;79.03;102441.13;5113478;28;20378;-66
2022/12/02 03:46:14;;;;;;;114.57;59.47;;;8.40;99.90;;;8.48;78.96;102438.47;5113265;28;20465;-66
2022/12/02 03:48:42;;;;;;;110.95;57.78;;;8.40;99.90;;;8.51;79.01;102441.19;5113243;28;20039;-68
2022/12/02 03:51:13;;;;;;;118.88;59.38;;;8.40;99.90;;;8.48;78.36;102427.91;5113168;28;20054;-66
2022/12/02 03:53:42;;;;;;;109.97;57.83;;;8.40;99.90;;;8.47;78.50;102422.59;5113251;28;20051;-66
2022/12/02 03:56:11;;;;;;;113.60;58.60;;;8.40;99.90;;;8.53;78.82;102418.41;5113050;28;20451;-66
2022/12/02 03:58:46;;;;;;;116.95;58.00;;;8.40;99.90;;;8.55;78.71;102423.72;5113138;28;20058;-67
2022/12/02 04:01:17;;;;;;;113.20;58.70;;;8.40;99.90;;;8.38;78.25;102399.47;5113442;28;20035;-66
2022/12/02 04:03:45;;;;;;;106.70;56.65;;;8.40;99.90;;;8.52;78.54;102423.59;5113104;28;20047;-66
2022/12/02 04:06:14;;;;;;;109.43;56.47;;;8.40;99.90;;;8.57;77.89;102430.84;5113084;28;20085;-66
2022/12/02 04:08:42;;;;;;;114.47;57.15;;;8.40;99.90;;;8.58;77.80;102424.69;5113561;28;20040;-66
2022/12/02 04:11:11;;;;;;;104.28;55.03;;;8.40;99.90;;;8.53;77.66;102430.69;5113009;28;20048;-66
2022/12/02 04:13:39;;;;;;;113.40;55.33;;;8.40;99.90;;;8.55;77.63;102426.34;5113176;28;20050;-66
2022/12/02 04:16:08;;;;;;;112.13;55.55;;;8.40;99.90;;;8.40;77.92;102421.50;5113145;28;20032;-66
2022/12/02 04:18:38;;;;;;;111.03;53.78;;;8.30;99.90;;;8.41;78.19;102415.41;5115445;28;20100;-66
2022/12/02 04:21:06;;;;;;;115.00;57.03;;;8.30;99.90;;;8.50;77.58;102418.31;5116819;28;20055;-66
2022/12/02 04:23:34;;;;;;;121.55;57.20;;;8.30;99.90;;;8.45;77.68;102412.00;5116816;28;20485;-66
2022/12/02 04:26:03;;;;;;;117.30;57.30;;;8.30;99.90;;;8.47;77.62;102412.06;5116836;28;20042;-66
2022/12/02 04:28:31;;;;;;;112.50;56.33;;;8.30;99.90;;;8.46;77.80;102399.72;5116759;28;20046;-66
2022/12/02 04:30:59;;;;;;;109.82;56.55;;;8.30;99.90;;;8.40;77.58;102392.50;5116683;28;20528;-66
2022/12/02 04:33:28;;;;;;;105.03;53.67;;;8.30;99.90;;;8.49;77.89;102399.81;5116595;28;20083;-66
2022/12/02 04:35:57;;;;;;;112.22;56.00;;;8.30;99.90;;;8.45;77.58;102398.84;5098317;28;20044;-66
2022/12/02 04:38:26;;;;;;;114.72;56.03;;;8.30;99.90;;;8.39;77.63;102400.38;5116251;28;20401;-66
2022/12/02 04:40:54;;;;;;;119.15;56.97;;;8.30;99.90;;;8.42;77.88;102393.44;5116504;28;20044;-66
2022/12/02 04:43:22;;;;;;;119.05;56.60;;;8.30;99.90;;;8.16;78.28;102365.44;5116505;28;20061;-66
2022/12/02 04:45:50;;;;;;;116.80;56.47;;;8.20;99.90;;;8.41;78.13;102398.69;5116459;28;20050;-66
2022/12/02 04:48:19;;;;;;;117.85;56.95;;;8.30;99.90;;;8.50;77.77;102391.03;5116422;28;20090;-66
2022/12/02 04:50:47;;;;;;;116.18;57.75;;;8.30;99.90;;;8.50;78.11;102394.56;5116040;28;20493;-66
2022/12/02 04:53:16;;;;;;;115.70;57.55;;;8.30;99.90;;;8.51;78.28;102395.47;5116209;28;20051;-66
2022/12/02 04:55:49;;;;;;;109.93;56.40;;;8.30;99.90;;;8.52;77.81;102395.50;5097927;28;20437;-66
2022/12/02 04:58:18;;;;;;;117.55;58.28;;;8.40;99.90;;;8.54;78.07;102392.91;5116192;28;20381;-66
2022/12/02 05:00:47;;;;;;;114.32;57.38;;;8.40;99.90;;;8.56;78.19;102384.19;5115855;28;20039;-66
2022/12/02 05:03:15;;;;;;;111.25;55.40;;;8.40;99.90;;;8.57;78.02;102382.47;5116128;28;20039;-66
2022/12/02 05:05:43;;;;;;;119.18;56.70;;;8.40;99.90;;;8.56;78.33;102383.28;5115815;28;20496;-66
2022/12/02 05:08:11;;;;;;;113.40;56.15;;;8.40;99.90;;;8.50;77.82;102376.09;5116043;28;20054;-66
2022/12/02 05:10:41;;;;;;;113.15;54.97;;;8.40;99.90;;;8.46;77.70;102386.56;5097689;28;20547;-67
2022/12/02 05:13:09;;;;;;;117.47;57.63;;;8.30;99.90;;;8.40;78.59;102370.56;5116248;28;20122;-68
2022/12/02 05:15:38;;;;;;;122.88;57.08;;;8.30;99.90;;;8.43;78.41;102368.88;5115869;28;20044;-67
2022/12/02 05:18:06;;;;;;;117.45;57.50;;;8.30;99.90;;;8.51;78.27;102371.75;5115388;28;20040;-68
2022/12/02 05:20:35;;;;;;;107.57;54.20;;;8.40;99.90;;;8.52;78.09;102376.16;5115645;28;20369;-67
2022/12/02 05:23:03;;;;;;;105.53;53.13;;;8.40;99.90;;;8.07;78.02;102344.09;5116031;28;20067;-67
2022/12/02 05:25:31;;;;;;;107.97;54.13;;;8.20;99.90;;;8.20;78.32;102373.47;5115654;28;20047;-67
2022/12/02 05:28:01;;;;;;;111.90;55.00;;;8.10;99.90;;;8.21;78.62;102361.16;5115694;28;20071;-67
2022/12/02 05:30:29;;;;;;;115.00;54.58;;;8.10;99.90;;;8.29;78.66;102366.69;5114238;28;20405;-67
2022/12/02 05:32:57;;;;;;;110.55;54.25;;;8.10;99.90;;;8.24;78.67;102374.44;5115287;28;20043;-67
2022/12/02 05:35:26;;;;;;;112.43;52.80;;;8.10;99.90;;;8.30;78.44;102372.03;5115517;28;20058;-67
2022/12/02 05:37:54;;;;;;;100.53;50.45;;;8.20;99.90;;;8.23;78.82;102379.69;5115097;28;20036;-67
2022/12/02 05:40:28;;;;;;;91.20;48.95;;;8.10;99.90;;;8.19;78.49;102376.03;5115384;28;20044;-67
2022/12/02 05:42:57;;;;;;;95.00;47.42;;;8.10;99.90;;;8.20;78.39;102376.13;5115285;28;20393;-67
2022/12/02 05:45:27;;;;;;;92.80;48.90;;;8.10;99.90;;;8.21;78.68;102376.97;5115489;28;20081;-67
2022/12/02 05:47:56;;;;;;;89.63;47.33;;;8.10;99.90;;;8.29;78.79;102375.50;5115254;28;20040;-67
2022/12/02 05:50:24;;;;;;;97.05;48.45;;;8.10;99.90;;;8.20;78.64;102355.03;5114989;28;20036;-67
2022/12/02 05:52:55;;;;;;;88.88;46.25;;;8.20;99.90;;;8.27;78.18;102374.56;5114860;28;20496;-67
2022/12/02 05:55:23;;;;;;;87.20;45.45;;;8.10;99.90;;;8.30;78.42;102361.50;5115370;28;20544;-67
2022/12/02 05:57:55;;;;;;;84.35;44.63;;;8.20;99.90;;;8.15;78.09;102337.25;5114985;28;20035;-67
2022/12/02 06:00:24;;;;;;;80.93;43.63;;;8.20;99.90;;;8.28;77.81;102371.09;5114957;28;20044;-67
2022/12/02 06:02:57;;;;;;;76.30;41.50;;;8.20;99.90;;;8.26;77.60;102367.53;5114675;28;20043;-67
2022/12/02 06:05:28;;;;;;;86.70;45.00;;;8.20;99.90;;;8.16;77.73;102362.78;5115214;28;20039;-68
2022/12/02 06:08:01;;;;;;;75.35;40.58;;;8.10;99.90;;;8.21;77.12;102366.44;5114852;28;20044;-68
2022/12/02 06:10:32;;;;;;;75.28;41.47;;;8.10;99.90;;;8.21;77.27;102369.97;5114781;28;20397;-67
2022/12/02 06:13:14;;;;;;;77.38;41.88;;;8.10;99.90;;;8.13;77.66;102365.31;5096546;28;20436;-67
2022/12/02 06:15:42;;;;;;;80.25;41.17;;;8.10;99.90;;;8.15;77.79;102364.53;5096727;28;20043;-67
2022/12/02 06:18:16;;;;;;;77.95;40.92;;;8.00;99.90;;;8.15;77.44;102363.63;5096339;28;20044;-67
2022/12/02 06:20:46;;;;;;;81.50;42.95;;;8.00;99.90;;;8.15;77.17;102367.16;5114182;28;20071;-67
2022/12/02 06:23:18;;;;;;;78.17;41.47;;;8.00;99.90;;;7.98;77.39;102336.78;5114952;28;20063;-67
2022/12/02 06:25:48;;;;;;;83.95;41.92;;;8.00;99.90;;;8.08;77.54;102369.56;5114829;28;20039;-67
2022/12/02 06:28:24;;;;;;;80.55;42.40;;;8.00;99.90;;;8.13;77.95;102368.84;5114276;28;20047;-67
2022/12/02 06:30:57;;;;;;;85.13;44.42;;;8.00;99.90;;;8.18;77.60;102376.91;5114343;28;20061;-67
2022/12/02 06:33:31;;;;;;;80.55;43.25;;;8.00;99.90;;;8.16;77.51;102368.97;5114981;28;20050;-67
2022/12/02 06:36:04;;;;;;;80.35;43.72;;;8.00;99.90;;;8.03;77.31;102365.91;5114066;28;20066;-67
2022/12/02 06:38:37;;;;;;;82.30;43.80;;;7.90;99.90;;;7.96;77.57;102366.56;5113994;28;20047;-67
2022/12/02 06:41:15;;;;;;;88.82;44.00;;;7.80;99.90;;;8.04;77.50;102362.41;5113887;28;20119;-67
2022/12/02 06:45:03;;;;;;;83.75;44.22;;;7.90;99.90;;;7.98;77.41;102363.13;5114180;28;20036;-67
2022/12/02 06:46:34;;;;;;;86.20;44.47;;;7.90;99.90;;;7.78;77.46;102358.13;5113763;28;20071;-67
2022/12/02 06:49:17;;;;;;;81.82;42.88;;;7.70;99.90;;;7.74;77.54;102365.00;5113843;28;20458;-67
2022/12/02 06:51:45;;;;;;;83.57;42.28;;;7.60;99.90;;;7.72;77.28;102358.84;5114039;28;20047;-67
2022/12/02 06:54:20;;;;;;;86.65;42.47;;;7.60;99.90;;;7.67;76.80;102357.78;5095701;28;20083;-67
2022/12/02 06:56:50;;;;;;;84.60;42.22;;;7.60;99.90;;;7.63;76.54;102357.63;5114355;28;20051;-67
2022/12/02 06:59:22;;;;;;;81.53;39.33;;;7.60;99.90;;;7.58;76.57;102354.88;5113965;28;20053;-67
2022/12/02 07:01:55;;;;;;;82.97;41.10;;;7.50;99.90;;;7.44;76.31;102355.25;5095772;28;20040;-67
2022/12/02 07:04:41;;;;;;;85.43;42.92;;;7.40;99.90;;;7.38;76.50;102369.13;5113926;28;20040;-67
2022/12/02 07:07:18;;;;;;;87.90;41.85;;;7.30;99.90;;;7.42;76.74;102367.47;5095714;28;20532;-67
2022/12/02 07:09:49;;;;;;;86.50;43.83;;;7.30;99.90;;;7.30;76.59;102367.97;5114053;28;20048;-67
2022/12/02 07:12:22;;;;;;;83.78;40.72;;;7.30;99.90;;;7.29;77.10;102367.09;5113718;28;20048;-67
2022/12/02 07:14:53;;;;;;;81.30;40.55;;;7.20;99.90;;;7.33;76.97;102365.47;5113768;28;20433;-67
2022/12/02 07:17:26;;;;;;;76.50;37.53;;;7.20;99.90;;;7.32;76.66;102371.53;5113753;28;20035;-67
2022/12/02 07:20:29;;;;;;;80.03;39.75;;;7.20;99.90;;;7.32;76.63;102372.44;5113753;28;20130;-67
2022/12/02 07:23:01;;;;;;;83.57;38.30;;;7.20;99.90;;;7.30;76.43;102371.50;5113731;28;20063;-67
2022/12/02 07:25:37;;;;;;;82.85;40.28;;;7.20;99.90;;;7.21;76.43;102370.31;5113723;28;20035;-67
2022/12/02 07:28:26;;;;;;;85.22;40.88;;;7.10;99.90;;;7.17;76.22;102377.22;5113512;28;20054;-67
2022/12/02 07:30:58;;;;;;;88.22;41.53;;;7.10;99.90;;;7.19;76.72;102379.88;5113651;28;20043;-68
2022/12/02 07:33:27;;;;;;;79.75;39.10;;;7.10;99.90;;;7.14;76.53;102373.59;5113403;28;20048;-66
2022/12/02 07:35:56;;;;;;;83.60;40.28;;;7.10;99.90;;;7.11;76.63;102377.00;5113878;28;20039;-69
2022/12/02 07:38:25;;;;;;;82.23;37.37;;;7.10;99.90;;;7.06;76.68;102364.53;5113463;28;20128;-72
2022/12/02 07:41:13;;;;;;;87.47;40.38;;;7.10;99.90;;;6.86;77.28;102386.63;5114164;28;20046;-69
2022/12/02 07:43:41;;;;;;;87.07;40.10;;;6.80;99.90;;;6.85;77.16;102384.84;5113497;28;20543;-70
2022/12/02 07:46:10;;;;;;;81.43;39.15;;;6.80;99.90;;;6.91;77.26;102383.31;5113498;28;20044;-71
2022/12/02 07:48:38;;;;;;;83.68;40.60;;;6.80;99.90;;;6.83;77.48;102387.41;5113450;28;20047;-70
2022/12/02 07:51:08;;;;;;;84.03;39.75;;;6.80;99.90;;;6.89;77.31;102385.00;5113701;28;20385;-70
2022/12/02 07:53:36;;;;;;;87.13;40.78;;;6.80;99.90;;;7.00;77.40;102377.47;5115507;28;20130;-73
2022/12/02 07:56:05;;;;;;;88.05;39.00;;;6.90;99.90;;;7.03;77.08;102383.75;5117628;28;20040;-72
2022/12/02 07:58:34;;;;;;;85.68;39.15;;;6.90;99.90;;;6.93;77.14;102380.75;5116984;28;20515;-72
2022/12/02 08:01:23;;;;;;;85.20;39.65;;;6.90;99.90;;;6.94;77.14;102383.44;5117421;28;20044;-71
2022/12/02 08:03:51;;;;;;;78.40;38.08;;;6.80;99.90;;;6.85;77.24;102390.13;5117513;28;20382;-70
2022/12/02 08:06:20;;;;;;;86.10;40.70;;;6.80;99.90;;;6.73;77.28;102392.31;5117490;28;20077;-69
2022/12/02 08:08:49;;;;;;;82.63;38.20;;;6.70;99.90;;;6.69;77.31;102374.63;5098854;28;20097;-69
2022/12/02 08:11:17;;;;;;;87.95;40.40;;;6.70;99.90;;;6.50;77.81;102380.06;5116925;28;20117;-69
2022/12/02 08:13:45;;;;;;;86.30;40.67;;;6.50;99.90;;;6.22;78.98;102388.66;5117026;28;20119;-70
2022/12/02 08:16:14;;;;;;;78.95;38.60;;;6.30;99.90;;;6.37;78.98;102397.09;5116710;28;20049;-72
2022/12/02 08:18:42;;;;;;;87.43;39.17;;;6.30;99.90;;;6.13;79.08;102383.06;5116571;28;20067;-73
2022/12/02 08:21:10;;;;;;;77.72;36.88;;;6.10;99.90;;;5.96;78.10;102387.66;5116511;28;20032;-72
2022/12/02 08:23:40;;;;;;;79.20;36.42;;;6.00;99.90;;;6.06;78.20;102399.41;5116621;28;20098;-72
2022/12/02 08:26:08;;;;;;;78.75;36.40;;;6.00;99.90;;;6.15;78.15;102400.69;5116509;28;20048;-78
2022/12/02 08:28:37;;;;;;;84.00;36.67;;;6.10;99.90;;;6.14;77.81;102397.97;5117044;28;20050;-76
2022/12/02 08:31:05;;;;;;;78.40;36.20;;;6.10;99.90;;;6.16;77.88;102389.34;5116611;28;20040;-69
2022/12/02 08:33:34;;;;;;;75.68;35.78;;;6.10;99.90;;;6.23;77.73;102398.34;5116365;28;20047;-74
2022/12/02 08:36:02;;;;;;;72.22;34.03;;;6.20;99.90;;;6.02;77.78;102387.91;5117239;28;20051;-72
2022/12/02 08:38:31;;;;;;;74.60;34.08;;;6.00;99.90;;;6.14;77.73;102393.63;5116170;28;20404;-72
2022/12/02 08:41:01;;;;;;;73.00;35.03;;;6.10;99.90;;;6.16;77.84;102391.97;5116211;28;20473;-75
2022/12/02 08:43:29;;;;;;;72.20;34.87;;;6.10;99.90;;;6.09;77.67;102395.22;5116538;28;20054;-72
2022/12/02 08:45:57;;;;;;;68.32;33.33;;;6.10;99.90;;;6.26;77.50;102393.19;5115996;28;20789;-72
2022/12/02 08:48:26;;;;;;;73.53;33.97;;;6.20;99.90;;;6.26;77.34;102395.81;5116398;28;20047;-69
2022/12/02 08:50:54;;;;;;;68.40;32.23;;;6.20;99.90;;;6.26;77.25;102401.06;5116123;28;20047;-69
2022/12/02 08:53:23;;;;;;;67.55;31.70;;;6.30;99.90;;;6.34;77.32;102402.25;5116026;28;20043;-69
2022/12/02 08:55:51;;;;;;;66.90;33.45;;;6.30;99.90;;;6.35;77.33;102404.03;5115971;28;20088;-72
2022/12/02 08:58:21;;;;;;;61.90;30.95;;;6.30;99.90;;;6.47;77.32;102399.25;5116000;28;20378;-71
2022/12/02 09:00:49;;;;;;;61.50;30.40;;;6.40;99.90;;;6.37;77.30;102398.00;5116382;28;20050;-72
2022/12/02 09:03:18;;;;;;;63.63;30.95;;;6.30;99.90;;;6.34;77.11;102389.13;5115719;28;20047;-71
2022/12/02 09:05:46;;;;;;;65.45;31.30;;;6.30;99.90;;;6.48;77.18;102401.06;5115259;28;20040;-71
2022/12/02 09:08:14;;;;;;;62.08;31.08;;;6.40;99.90;;;6.56;77.15;102399.59;5115768;28;20393;-70
2022/12/02 09:10:42;;;;;;;61.78;30.75;;;6.50;99.90;;;6.48;76.70;102403.69;5115707;28;20401;-70
2022/12/02 09:13:11;;;;;;;59.08;30.23;;;6.50;99.90;;;6.49;76.78;102381.78;5116160;28;20040;-70
2022/12/02 09:15:41;;;;;;;57.42;29.23;;;6.50;99.90;;;6.67;76.70;102397.34;5115487;28;20550;-70
2022/12/02 09:18:09;;;;;;;57.23;30.00;;;6.60;99.90;;;6.63;76.29;102396.34;5115849;28;20460;-69
2022/12/02 09:20:41;;;;;;;59.05;29.75;;;6.60;99.90;;;6.37;76.62;102387.50;5115810;28;20068;-69
2022/12/02 09:23:10;;;;;;;59.10;29.03;;;6.40;99.90;;;6.16;76.98;102397.22;5116045;28;20393;-69
2022/12/02 09:25:38;;;;;;;56.65;29.27;;;6.20;99.90;;;6.34;77.06;102395.28;5097346;28;20051;-69
2022/12/02 09:28:06;;;;;;;53.08;29.67;;;6.30;99.90;;;6.41;77.29;102399.00;5115333;28;20040;-69
2022/12/02 09:30:35;;;;;;;55.38;29.70;;;6.30;99.90;;;6.42;76.75;102398.19;5115338;28;20054;-69
2022/12/02 09:33:04;;;;;;;54.95;28.98;;;6.40;99.90;;;6.36;76.83;102398.88;5115560;28;20055;-69
2022/12/02 09:35:33;;;;;;;54.73;27.97;;;6.30;99.90;;;6.39;76.83;102398.97;5115221;28;20400;-68
2022/12/02 09:38:02;;;;;;;52.15;28.48;;;6.30;99.90;;;5.58;76.77;102309.13;5115426;28;20401;-72
2022/12/02 09:40:32;;;;;;;51.00;27.88;;;6.20;99.90;;;6.25;77.17;102399.31;5114976;28;20127;-69
2022/12/02 09:43:01;;;;;;;52.00;27.27;;;6.20;99.90;;;6.16;76.92;102391.97;5114953;28;20054;-68
2022/12/02 09:45:30;;;;;;;53.03;28.17;;;6.20;99.90;;;6.31;77.20;102396.88;5115206;28;20040;-69
2022/12/02 09:47:59;;;;;;;52.17;27.52;;;6.30;99.90;;;6.23;77.33;102401.84;5115471;28;20051;-68
2022/12/02 09:50:28;;;;;;;47.67;26.53;;;6.20;99.90;;;6.35;77.27;102401.41;5115193;28;20044;-68
2022/12/02 09:53:05;;;;;;;46.07;27.47;;;6.30;99.90;;;6.44;77.22;102404.41;5114885;28;20051;-69
2022/12/02 09:55:34;;;;;;;49.35;27.70;;;6.30;99.90;;;6.58;76.53;102394.38;5114777;28;20278;-68
2022/12/02 09:58:12;;;;;;;45.58;25.95;;;6.50;99.90;;;6.36;76.72;102377.84;5114776;28;20179;-68
2022/12/02 10:00:41;;;;;;;52.22;26.55;;;6.40;99.90;;;6.30;76.53;102389.84;5115034;28;20227;-67
2022/12/02 10:03:13;;;;;;;45.63;25.47;;;6.40;99.90;;;6.38;76.55;102402.44;5114897;28;20042;-69
2022/12/02 10:05:47;;;;;;;46.15;25.98;;;6.30;99.90;;;6.46;76.52;102399.19;5114639;28;20044;-68
2022/12/02 10:08:20;;;;;;;46.90;25.02;;;6.30;99.90;;;6.34;76.87;102400.53;5114506;28;20126;-67
2022/12/02 10:10:49;;;;;;;44.97;25.55;;;6.30;99.90;;;6.35;76.63;102389.19;5114855;28;20055;-67
2022/12/02 10:13:21;;;;;;;46.30;26.00;;;6.30;99.90;;;6.37;76.68;102382.25;5114381;28;20123;-68
2022/12/02 10:15:49;;;;;;;45.27;25.83;;;6.30;99.90;;;6.47;76.71;102385.19;5113831;28;20405;-67
2022/12/02 10:18:21;;;;;;;44.10;24.52;;;6.40;99.90;;;6.52;76.60;102376.66;5114254;28;20123;-67
2022/12/02 10:20:51;;;;;;;43.90;24.40;;;6.40;99.90;;;6.54;76.23;102376.72;5114237;28;20044;-68
2022/12/02 10:23:21;;;;;;;43.55;25.45;;;6.50;99.90;;;6.44;76.88;102383.38;5114070;28;20508;-68
2022/12/02 10:25:54;;;;;;;44.97;24.77;;;6.40;99.90;;;6.61;76.38;102382.25;5114121;28;20154;-67